Time;durP1;ratioP1;P1;durP2;ratioP2;P2;SDS_P1;SDS_P2;PMS_P1;PMS_P2;Temp;Humidity;BMP_temperature;BMP_pressure;BME280_temperature;BME280_humidity;BME280_pressure;Samples;Min_cycle;Max_cycle;Signal;HPM_P1;HPM_P2
2022/01/10 00:00:17;;;;;;;5.87;2.87;;;2.40;99.90;;;2.80;70.42;96958.63;4964172;29;20051;-37
2022/01/10 00:02:50;;;;;;;6.33;2.97;;;2.40;99.90;;;2.78;70.49;96963.16;4960644;28;20345;-37
2022/01/10 00:05:19;;;;;;;6.75;3.03;;;2.40;99.90;;;2.78;70.40;96970.22;4963080;29;20055;-37
2022/01/10 00:07:47;;;;;;;8.03;3.97;;;2.40;99.90;;;2.77;70.41;96958.88;4964127;29;20047;-37
2022/01/10 00:10:17;;;;;;;5.27;3.30;;;2.30;99.90;;;2.79;70.71;96964.81;4963612;29;20191;-37
2022/01/10 00:12:45;;;;;;;10.03;3.50;;;2.40;99.90;;;2.82;70.54;96975.09;4963683;29;20115;-37
2022/01/10 00:15:16;;;;;;;8.97;3.23;;;2.40;99.90;;;2.84;70.55;96978.41;4963628;29;20047;-37
2022/01/10 00:17:44;;;;;;;6.23;3.67;;;2.50;99.90;;;2.84;70.54;96977.59;4964103;29;20047;-37
2022/01/10 00:20:18;;;;;;;8.50;3.47;;;2.50;99.90;;;2.86;70.67;96973.88;4964004;29;20047;-37
2022/01/10 00:22:49;;;;;;;7.28;2.75;;;2.50;99.90;;;2.87;70.60;96974.69;4962233;29;20371;-37
2022/01/10 00:25:20;;;;;;;8.27;3.23;;;2.50;99.90;;;2.88;70.40;96984.25;4963432;29;20051;-37
2022/01/10 00:27:53;;;;;;;7.70;3.43;;;2.50;99.90;;;2.89;70.44;96976.25;4956173;29;20112;-37
2022/01/10 00:30:24;;;;;;;3.67;2.40;;;2.50;99.90;;;2.92;70.72;96977.78;4962144;29;20382;-37
2022/01/10 00:32:53;;;;;;;6.57;2.77;;;2.60;99.90;;;2.93;70.47;96985.53;4946783;29;20055;-37
2022/01/10 00:35:22;;;;;;;4.30;2.10;;;2.60;99.90;;;2.95;70.68;96988.88;4963361;29;20237;-37
2022/01/10 00:37:51;;;;;;;5.03;2.20;;;2.70;99.90;;;2.98;70.02;96992.22;4963778;29;20057;-37
2022/01/10 00:40:21;;;;;;;6.60;2.57;;;2.70;99.90;;;2.96;70.48;96993.16;4964040;29;20370;-37
2022/01/10 00:42:55;;;;;;;4.80;2.77;;;2.60;99.90;;;2.98;70.47;97002.72;4963975;29;20119;-37
2022/01/10 00:45:27;;;;;;;4.40;2.57;;;2.60;99.90;;;2.94;70.38;96995.09;4946116;29;20275;-38
2022/01/10 00:47:58;;;;;;;6.97;2.90;;;2.60;99.90;;;2.95;70.49;97006.47;4963886;29;20066;-37
2022/01/10 00:50:29;;;;;;;5.13;2.23;;;2.60;99.90;;;2.94;70.31;97002.97;4963747;29;20054;-37
2022/01/10 00:52:57;;;;;;;4.60;2.23;;;2.60;99.90;;;2.91;70.74;97007.69;4963621;29;20047;-37
2022/01/10 00:55:26;;;;;;;5.23;2.80;;;2.50;99.90;;;2.89;70.54;97005.16;4961322;29;20051;-37
2022/01/10 00:57:54;;;;;;;6.97;2.37;;;2.50;99.90;;;2.91;70.42;97015.56;4963516;29;20047;-37
2022/01/10 01:00:23;;;;;;;9.27;3.93;;;2.50;99.90;;;2.94;70.42;97024.00;4965001;28;20049;-37
2022/01/10 01:02:51;;;;;;;9.23;5.07;;;2.60;99.90;;;2.95;70.71;97023.06;4949546;29;20055;-37
2022/01/10 01:05:22;;;;;;;11.77;5.30;;;2.60;99.90;;;2.98;70.33;97031.66;4966727;29;20051;-37
2022/01/10 01:07:50;;;;;;;12.93;6.97;;;2.60;99.90;;;2.99;70.47;97033.34;4967020;29;20222;-37
2022/01/10 01:10:57;;;;;;;10.57;5.50;;;2.60;99.90;;;3.00;70.73;97040.25;4966355;29;20062;-37
2022/01/10 01:13:27;;;;;;;9.03;4.30;;;2.60;99.90;;;2.98;70.61;97048.25;4963527;29;20051;-37
2022/01/10 01:24:08;;;;;;;7.90;4.00;;;2.40;99.90;;;2.90;70.78;97062.03;4964700;29;20375;-37
2022/01/10 01:26:49;;;;;;;;;;;2.50;99.90;;;2.90;70.31;97072.56;4965760;29;20058;-37
2022/01/10 01:29:26;;;;;;;8.87;4.67;;;2.50;99.90;;;2.92;70.61;97064.53;4966548;29;20238;-37
2022/01/10 01:31:55;;;;;;;9.40;4.13;;;2.50;99.90;;;2.92;70.60;97069.81;4966160;29;20047;-37
2022/01/10 01:34:25;;;;;;;6.67;3.53;;;2.60;99.90;;;2.91;70.61;97071.59;4966294;29;20047;-37
2022/01/10 01:36:55;;;;;;;7.90;3.77;;;2.50;99.90;;;2.89;70.75;97073.53;4966537;29;20047;-37
2022/01/10 01:39:26;;;;;;;8.80;4.27;;;2.50;99.90;;;2.91;70.96;97076.03;4965440;28;20051;-37
2022/01/10 01:42:04;;;;;;;8.95;4.32;;;2.50;99.90;;;2.92;70.64;97075.06;4965009;29;20244;-37
2022/01/10 01:44:33;;;;;;;7.47;3.73;;;2.60;99.90;;;2.90;70.50;97082.25;4963669;29;20349;-37
2022/01/10 01:47:03;;;;;;;7.63;3.40;;;2.50;99.90;;;2.88;70.80;97090.25;4948831;29;20051;-37
2022/01/10 01:49:31;;;;;;;7.03;3.53;;;2.50;99.90;;;2.88;70.72;97089.44;4948900;29;20055;-37
2022/01/10 01:51:59;;;;;;;7.07;4.20;;;2.40;99.90;;;2.88;70.95;97082.38;4964741;29;20078;-37
2022/01/10 01:54:28;;;;;;;6.53;3.40;;;2.50;99.90;;;2.88;70.68;97092.88;4948267;29;20051;-37
2022/01/10 01:56:58;;;;;;;6.50;3.67;;;2.50;99.90;;;2.87;70.72;97091.25;4948830;29;20051;-37
2022/01/10 01:59:26;;;;;;;6.23;3.40;;;2.40;99.90;;;2.84;70.75;97096.72;4964866;29;20051;-37
2022/01/10 02:01:55;;;;;;;7.03;3.43;;;2.40;99.90;;;2.84;70.95;97094.09;4964685;29;20055;-37
2022/01/10 02:04:23;;;;;;;6.73;3.47;;;2.40;99.90;;;2.84;70.96;97098.53;4948532;29;20051;-37
2022/01/10 02:06:56;;;;;;;7.20;3.60;;;2.40;99.90;;;2.85;70.86;97098.41;4964349;29;20061;-37
2022/01/10 02:09:24;;;;;;;7.43;2.77;;;2.40;99.90;;;2.87;70.95;97101.75;4948337;29;20055;-37
2022/01/10 02:11:55;;;;;;;8.10;4.37;;;2.50;99.90;;;2.88;71.13;97105.22;4962300;28;20047;-42
2022/01/10 02:14:23;;;;;;;11.77;3.67;;;2.50;99.90;;;2.89;71.08;97106.84;4948575;29;20069;-37
2022/01/10 02:16:55;;;;;;;10.47;3.30;;;2.50;99.90;;;2.90;71.12;97112.00;4964008;29;20051;-37
2022/01/10 02:19:32;;;;;;;6.53;3.40;;;2.50;99.90;;;2.91;70.98;97118.13;4964568;29;20057;-37
2022/01/10 02:22:00;;;;;;;7.73;3.73;;;2.60;99.90;;;2.92;71.00;97117.13;4965927;29;20073;-36
2022/01/10 02:24:36;;;;;;;7.43;4.00;;;2.60;99.90;;;2.90;70.76;97121.69;4963591;29;20222;-37
2022/01/10 02:27:04;;;;;;;5.67;2.77;;;2.50;99.90;;;2.89;70.72;97115.59;4948870;29;20055;-37
2022/01/10 02:29:36;;;;;;;6.60;2.80;;;2.50;99.90;;;2.91;71.11;97131.25;4964124;29;20055;-37
2022/01/10 02:32:04;;;;;;;7.10;2.87;;;2.50;99.90;;;2.92;70.83;97138.16;4965471;29;20051;-37
2022/01/10 02:34:33;;;;;;;7.27;3.67;;;2.60;99.90;;;2.91;70.87;97129.47;4947919;29;20055;-38
2022/01/10 02:37:01;;;;;;;8.83;3.73;;;2.60;99.90;;;2.89;71.01;97141.91;4965461;29;20225;-37
2022/01/10 02:39:36;;;;;;;5.67;2.73;;;2.50;99.90;;;2.87;71.07;97143.81;4964004;29;20054;-37
2022/01/10 02:42:04;;;;;;;6.13;3.63;;;2.50;99.90;;;2.87;70.98;97145.59;4964294;29;20081;-38
2022/01/10 02:44:32;;;;;;;7.07;3.23;;;2.40;99.90;;;2.88;71.10;97142.03;4964886;29;20059;-38
2022/01/10 02:47:00;;;;;;;6.90;3.97;;;2.50;99.90;;;2.88;71.04;97149.91;4947997;29;20258;-37
2022/01/10 02:49:33;;;;;;;7.82;3.20;;;2.50;99.90;;;2.87;71.19;97150.84;4963589;29;20051;-37
2022/01/10 02:52:03;;;;;;;5.67;3.10;;;2.50;99.90;;;2.87;71.03;97156.09;4964686;29;20059;-36
2022/01/10 02:54:33;;;;;;;4.83;2.97;;;2.40;99.90;;;2.88;71.35;97161.25;4947260;29;20054;-38
2022/01/10 02:57:08;;;;;;;8.70;3.53;;;2.50;99.90;;;2.89;71.15;97168.19;4964343;28;20047;-37
2022/01/10 02:59:37;;;;;;;9.57;3.40;;;2.50;99.90;;;2.88;71.30;97166.50;4964528;29;20049;-37
2022/01/10 03:02:08;;;;;;;10.20;4.20;;;2.50;99.90;;;2.88;71.28;97171.75;4963319;29;20061;-38
2022/01/10 03:04:37;;;;;;;7.30;3.97;;;2.50;99.90;;;2.92;71.17;97174.97;4947061;29;20069;-37
2022/01/10 03:07:05;;;;;;;8.30;3.70;;;2.60;99.90;;;2.92;71.21;97183.69;4964856;29;20057;-37
2022/01/10 03:09:35;;;;;;;6.47;3.70;;;2.50;99.90;;;2.92;71.19;97183.69;4947275;29;20057;-36
2022/01/10 03:12:07;;;;;;;9.57;4.00;;;2.50;99.90;;;2.93;71.12;97184.56;4946435;29;20046;-36
2022/01/10 03:14:36;;;;;;;8.77;3.73;;;2.50;99.90;;;2.96;71.53;97190.38;4947045;29;20285;-36
2022/01/10 03:17:05;;;;;;;7.93;4.00;;;2.60;99.90;;;2.99;71.40;97194.56;4964462;29;20055;-36
2022/01/10 03:19:33;;;;;;;6.67;3.37;;;2.70;99.90;;;2.99;71.47;97193.75;4963258;29;20050;-36
2022/01/10 03:22:02;;;;;;;5.57;3.50;;;2.60;99.90;;;2.99;70.95;97204.28;4964763;29;20169;-36
2022/01/10 03:24:31;;;;;;;5.07;3.70;;;2.60;99.90;;;2.98;71.10;97205.22;4962410;28;20051;-36
2022/01/10 03:27:00;;;;;;;10.77;3.87;;;2.60;99.90;;;2.98;71.15;97211.31;4947206;29;20046;-36
2022/01/10 03:29:28;;;;;;;5.50;3.23;;;2.60;99.90;;;2.97;71.22;97217.53;4964468;29;20047;-36
2022/01/10 03:31:56;;;;;;;4.97;3.20;;;2.50;99.90;;;2.95;71.31;97217.66;4963334;29;20055;-36
2022/01/10 03:34:25;;;;;;;8.13;3.70;;;2.50;99.90;;;2.96;71.23;97221.94;4962912;29;20051;-36
2022/01/10 03:36:53;;;;;;;9.03;4.03;;;2.60;99.90;;;2.94;71.20;97220.41;4964416;29;20047;-36
2022/01/10 03:39:21;;;;;;;7.43;4.33;;;2.50;99.90;;;2.90;71.40;97222.44;4946909;29;20051;-36
2022/01/10 03:41:50;;;;;;;8.30;3.73;;;2.50;99.90;;;2.91;71.34;97223.28;4963003;29;20051;-36
2022/01/10 03:44:18;;;;;;;7.77;4.00;;;2.50;99.90;;;2.95;71.50;97225.53;4946682;29;20091;-36
2022/01/10 03:46:47;;;;;;;7.60;3.50;;;2.60;99.90;;;2.99;71.22;97233.19;4946546;29;20069;-36
2022/01/10 03:49:16;;;;;;;9.57;5.03;;;2.60;99.90;;;2.96;71.26;97229.00;4946683;29;20061;-36
2022/01/10 03:51:44;;;;;;;8.77;4.33;;;2.60;99.90;;;2.99;71.07;97238.47;4962848;29;20058;-36
2022/01/10 03:54:13;;;;;;;8.87;4.83;;;2.60;99.90;;;2.98;71.48;97240.22;4962400;29;20080;-36
2022/01/10 03:56:41;;;;;;;8.87;4.97;;;2.60;99.90;;;3.00;71.69;97248.00;4962318;29;20057;-36
2022/01/10 03:59:10;;;;;;;9.57;5.10;;;2.70;99.90;;;3.02;71.38;97251.34;4946133;29;20051;-36
2022/01/10 04:01:39;;;;;;;7.00;3.97;;;2.70;99.90;;;3.03;71.41;97248.59;4946738;29;20073;-36
2022/01/10 04:04:09;;;;;;;7.87;4.80;;;2.70;99.90;;;3.05;71.29;97253.72;4962418;29;20051;-36
2022/01/10 04:06:37;;;;;;;7.37;4.63;;;2.70;99.90;;;3.04;71.45;97259.94;4946601;29;20059;-36
2022/01/10 04:09:05;;;;;;;11.00;4.93;;;2.60;99.90;;;3.03;71.24;97256.47;4962478;29;20055;-36
2022/01/10 04:11:34;;;;;;;11.17;5.23;;;2.60;99.90;;;3.01;71.58;97260.19;4961297;29;20051;-36
2022/01/10 04:14:03;;;;;;;10.83;5.50;;;2.60;99.90;;;3.02;71.36;97270.56;4962516;29;20047;-36
2022/01/10 04:16:31;;;;;;;14.27;5.63;;;2.60;99.90;;;3.02;71.34;97267.13;4946618;29;20244;-36
2022/01/10 04:19:00;;;;;;;10.87;6.73;;;2.60;99.90;;;3.03;71.26;97268.81;4964080;29;20147;-36
2022/01/10 04:21:29;;;;;;;12.30;5.40;;;2.70;99.90;;;3.02;71.38;97260.06;4962157;29;20047;-36
2022/01/10 04:23:57;;;;;;;20.27;13.40;;;2.60;99.90;;;3.01;70.81;97273.34;4963798;29;20226;-36
2022/01/10 04:26:25;;;;;;;17.43;10.17;;;2.60;99.90;;;2.99;71.51;97281.34;4961812;29;20256;-36
2022/01/10 04:28:53;;;;;;;22.77;17.80;;;2.60;99.90;;;3.01;71.47;97281.25;4946817;29;20055;-36
2022/01/10 04:31:22;;;;;;;21.03;14.47;;;2.70;99.90;;;3.00;71.37;97277.75;4963293;29;20063;-37
2022/01/10 04:33:51;;;;;;;10.20;7.43;;;2.60;99.90;;;2.95;71.38;97285.19;4946404;28;20055;-41
2022/01/10 04:36:19;;;;;;;12.27;7.23;;;2.60;99.90;;;2.95;71.52;97283.41;4966594;29;20057;-36
2022/01/10 04:38:47;;;;;;;16.83;6.97;;;2.60;99.90;;;2.95;71.57;97287.81;4966359;29;20051;-36
2022/01/10 04:41:19;;;;;;;12.93;6.00;;;2.60;99.90;;;2.94;71.56;97288.75;4950227;29;20047;-36
2022/01/10 04:43:47;;;;;;;11.13;5.73;;;2.60;99.90;;;2.96;71.45;97302.63;4949305;29;20055;-36
2022/01/10 04:46:16;;;;;;;9.43;5.03;;;2.60;99.90;;;2.92;71.12;97299.41;4966117;29;20043;-36
2022/01/10 04:48:44;;;;;;;10.93;5.63;;;2.60;99.90;;;2.85;71.72;97311.38;4966188;29;20061;-36
2022/01/10 04:51:16;;;;;;;9.57;5.57;;;2.40;99.90;;;2.85;71.42;97311.38;4967472;29;20359;-36
2022/01/10 04:53:50;;;;;;;11.97;6.23;;;2.50;99.90;;;2.84;71.72;97316.75;4965682;29;20047;-36
2022/01/10 04:56:19;;;;;;;9.80;5.33;;;2.50;99.90;;;2.88;71.68;97312.94;4949953;29;20051;-36
2022/01/10 04:58:51;;;;;;;12.17;5.53;;;2.60;99.90;;;2.91;71.51;97318.78;4959110;29;20112;-36
2022/01/10 05:01:21;;;;;;;10.20;5.87;;;2.60;99.90;;;2.93;71.70;97322.13;4964560;29;20061;-37
2022/01/10 05:03:52;;;;;;;11.50;5.10;;;2.60;99.90;;;2.94;71.55;97329.03;4965643;29;20051;-36
2022/01/10 05:06:21;;;;;;;11.37;5.90;;;2.60;99.90;;;2.92;71.58;97330.97;4949274;29;20361;-36
2022/01/10 05:08:51;;;;;;;10.90;5.43;;;2.60;99.90;;;2.93;71.68;97324.75;4949548;29;20051;-36
2022/01/10 05:11:58;;;;;;;12.57;5.00;;;2.60;99.90;;;2.93;71.56;97340.53;4958948;29;20051;-36
2022/01/10 05:14:27;;;;;;;10.87;7.93;;;2.60;99.90;;;2.91;71.62;97337.19;4965117;29;20051;-36
2022/01/10 05:16:55;;;;;;;11.40;5.63;;;2.60;99.90;;;2.92;71.68;97332.75;4949524;29;20057;-36
2022/01/10 05:19:23;;;;;;;9.13;6.03;;;2.60;99.90;;;2.94;71.66;97344.81;4965077;29;20055;-36
2022/01/10 05:21:55;;;;;;;9.13;5.77;;;2.60;99.90;;;2.95;71.33;97348.31;4966974;29;20057;-36
2022/01/10 05:24:24;;;;;;;17.83;7.60;;;2.60;99.90;;;2.92;71.73;97353.78;4965174;29;20077;-36
2022/01/10 05:26:52;;;;;;;10.33;5.43;;;2.60;99.90;;;2.92;71.74;97357.25;4966559;29;20061;-36
2022/01/10 05:29:24;;;;;;;10.80;6.77;;;2.60;99.90;;;2.91;71.93;97368.75;4965191;29;20131;-36
2022/01/10 05:31:52;;;;;;;15.13;6.97;;;2.60;99.90;;;2.91;71.79;97358.22;4949389;29;20054;-36
2022/01/10 05:34:35;;;;;;;15.00;6.50;;;2.60;99.90;;;2.86;71.86;97373.50;4964399;29;20150;-36
2022/01/10 05:37:03;;;;;;;9.67;5.80;;;2.50;99.90;;;2.86;72.01;97384.03;4966615;29;20047;-36
2022/01/10 05:39:31;;;;;;;12.90;7.13;;;2.50;99.90;;;2.87;71.92;97388.34;4964783;29;20388;-36
2022/01/10 05:41:59;;;;;;;13.23;6.93;;;2.50;99.90;;;2.89;72.07;97390.84;4966450;29;20055;-36
2022/01/10 05:44:29;;;;;;;19.97;7.60;;;2.60;99.90;;;2.93;71.94;97389.66;4948546;29;20070;-36
2022/01/10 05:46:59;;;;;;;10.83;6.80;;;2.60;99.90;;;2.93;72.15;97393.13;4964923;28;20051;-36
2022/01/10 05:49:33;;;;;;;13.27;7.63;;;2.60;99.90;;;2.93;72.35;97406.28;4948588;29;20051;-36
2022/01/10 05:52:04;;;;;;;17.97;8.10;;;2.60;99.90;;;2.88;72.40;97408.41;4965096;29;20057;-36
2022/01/10 05:54:35;;;;;;;19.37;8.13;;;2.50;99.90;;;2.89;71.83;97418.00;4948169;29;20053;-36
2022/01/10 05:57:06;;;;;;;16.33;8.40;;;2.50;99.90;;;2.90;72.14;97421.44;4948876;29;20055;-36
2022/01/10 05:59:38;;;;;;;17.02;8.63;;;2.50;99.90;;;2.91;72.11;97429.22;4949083;29;20066;-36
2022/01/10 06:02:07;;;;;;;19.67;8.97;;;2.60;99.90;;;2.94;72.13;97436.03;4948664;29;20058;-36
2022/01/10 06:04:35;;;;;;;17.47;8.67;;;2.60;99.90;;;2.94;71.85;97444.75;4965051;29;20061;-36
2022/01/10 06:07:14;;;;;;;18.07;9.90;;;2.60;99.90;;;2.88;72.19;97447.03;4964568;29;20061;-36
2022/01/10 06:09:45;;;;;;;17.33;9.87;;;2.50;99.90;;;2.92;72.33;97454.56;4949046;29;20059;-36
2022/01/10 06:12:14;;;;;;;21.63;10.80;;;2.60;99.90;;;2.94;72.27;97455.28;4948411;29;20055;-36
2022/01/10 06:14:42;;;;;;;18.27;10.10;;;2.70;99.90;;;3.01;72.41;97455.66;4947905;29;20063;-36
2022/01/10 06:17:11;;;;;;;18.93;10.27;;;2.70;99.90;;;3.06;72.44;97464.00;4948342;29;20051;-36
2022/01/10 06:19:39;;;;;;;19.40;10.13;;;2.70;99.90;;;2.98;72.93;97476.91;4964415;29;20345;-36
2022/01/10 06:22:08;;;;;;;18.27;10.53;;;2.70;99.90;;;2.91;72.74;97473.09;4948710;29;20073;-36
2022/01/10 06:24:37;;;;;;;40.67;11.70;;;2.60;99.90;;;2.86;72.55;97483.94;4964515;29;20058;-36
2022/01/10 06:27:06;;;;;;;20.10;10.20;;;2.50;99.90;;;2.86;72.68;97491.84;4947826;29;20050;-36
2022/01/10 06:29:35;;;;;;;25.90;11.87;;;2.50;99.90;;;2.84;72.53;97500.81;4948438;29;20062;-36
2022/01/10 06:32:04;;;;;;;20.70;11.43;;;2.50;99.90;;;2.85;72.50;97505.97;4963718;29;20063;-36
2022/01/10 06:34:33;;;;;;;26.00;11.40;;;2.50;99.90;;;2.85;72.70;97513.00;4963553;29;20082;-36
2022/01/10 06:37:02;;;;;;;18.10;10.60;;;2.50;99.90;;;2.85;73.01;97518.25;4964453;29;20252;-36
2022/01/10 06:39:36;;;;;;;22.37;10.87;;;2.50;99.90;;;2.85;72.82;97518.25;4964097;29;20055;-36
2022/01/10 06:42:05;;;;;;;20.77;10.57;;;2.50;99.90;;;2.79;72.93;97524.81;4964090;29;20069;-36
2022/01/10 06:44:34;;;;;;;20.17;10.57;;;2.40;99.90;;;2.84;73.06;97524.47;4947136;29;20054;-36
2022/01/10 06:47:03;;;;;;;18.47;10.13;;;2.50;99.90;;;2.87;72.95;97527.72;4947298;29;20063;-36
2022/01/10 06:49:31;;;;;;;20.77;10.20;;;2.50;99.90;;;2.92;73.04;97533.44;4963433;29;20406;-36
2022/01/10 06:52:00;;;;;;;21.13;11.00;;;2.60;99.90;;;2.93;72.83;97539.56;4947623;29;20061;-36
2022/01/10 06:54:28;;;;;;;23.80;12.40;;;2.60;99.90;;;2.93;72.86;97537.75;4963076;29;20057;-36
2022/01/10 06:57:00;;;;;;;20.10;9.63;;;2.60;99.90;;;2.92;72.71;97543.97;4947208;29;20078;-36
2022/01/10 06:59:31;;;;;;;25.10;10.20;;;2.60;99.90;;;2.86;72.94;97549.69;4946546;29;20054;-37
2022/01/10 07:01:59;;;;;;;23.43;10.07;;;2.50;99.90;;;2.89;72.90;97556.50;4947251;29;20387;-36
2022/01/10 07:04:29;;;;;;;22.60;11.00;;;2.60;99.90;;;2.86;73.08;97559.38;4947098;29;20061;-38
2022/01/10 07:06:59;;;;;;;24.10;11.70;;;2.50;99.90;;;2.84;73.08;97566.53;4947459;29;20057;-36
2022/01/10 07:09:31;;;;;;;29.77;12.13;;;2.50;99.90;;;2.84;73.09;97569.19;4947420;29;20051;-36
2022/01/10 07:12:08;;;;;;;26.03;12.57;;;2.50;99.90;;;2.85;72.96;97584.84;4945927;29;20057;-36
2022/01/10 07:14:45;;;;;;;27.30;12.33;;;2.50;99.90;;;2.85;72.85;97582.22;4947180;29;20063;-36
2022/01/10 07:17:15;;;;;;;29.77;14.43;;;2.50;99.90;;;2.80;73.48;97591.41;4946892;29;20053;-36
2022/01/10 07:19:44;;;;;;;23.57;12.43;;;2.50;99.90;;;2.81;73.41;97595.69;4947289;29;20058;-36
2022/01/10 07:22:19;;;;;;;30.17;13.33;;;2.50;99.90;;;2.80;73.57;97610.63;4947171;29;20077;-36
2022/01/10 07:24:47;;;;;;;25.03;11.20;;;2.50;99.90;;;2.79;73.18;97616.00;4964267;29;20353;-36
2022/01/10 07:27:15;;;;;;;25.37;12.93;;;2.50;99.90;;;2.75;73.32;97612.75;4963809;29;20369;-36
2022/01/10 07:29:45;;;;;;;30.97;12.07;;;2.40;99.90;;;2.78;73.29;97623.06;4964382;29;20047;-36
2022/01/10 07:32:13;;;;;;;22.63;10.90;;;2.50;99.90;;;2.82;73.44;97632.38;4964500;29;20066;-36
2022/01/10 07:34:42;;;;;;;33.23;13.73;;;2.50;99.90;;;2.81;73.38;97636.00;4963316;29;20464;-36
2022/01/10 07:37:10;;;;;;;32.50;13.10;;;2.50;99.90;;;2.82;73.31;97631.56;4963997;29;20066;-36
2022/01/10 07:39:38;;;;;;;30.37;12.67;;;2.50;99.90;;;2.78;73.37;97643.25;4964473;29;20050;-36
2022/01/10 07:42:07;;;;;;;29.17;13.40;;;2.40;99.90;;;2.81;73.49;97645.63;4963764;29;20051;-36
2022/01/10 07:44:55;;;;;;;30.27;13.33;;;2.50;99.90;;;2.84;73.70;97653.31;4960583;29;20276;-36
2022/01/10 07:47:24;;;;;;;28.37;12.33;;;2.50;99.90;;;2.86;73.69;97657.50;4962805;29;20061;-36
2022/01/10 07:49:52;;;;;;;26.03;12.47;;;2.60;99.90;;;2.83;73.49;97665.63;4964313;29;20061;-36
2022/01/10 07:52:22;;;;;;;34.43;13.30;;;2.50;99.90;;;2.85;73.89;97666.34;4964218;29;20097;-36
2022/01/10 07:54:50;;;;;;;32.83;11.80;;;2.50;99.90;;;2.76;73.98;97677.53;4962734;29;20051;-37
2022/01/10 07:57:19;;;;;;;37.07;14.17;;;2.50;99.90;;;2.77;74.03;97679.19;4963871;29;20055;-36
2022/01/10 07:59:47;;;;;;;35.00;13.20;;;2.40;99.90;;;2.76;73.53;97683.63;4963118;29;20052;-36
2022/01/10 08:02:16;;;;;;;30.13;12.17;;;2.40;99.90;;;2.80;73.58;97694.78;4964326;29;20051;-36
2022/01/10 08:04:44;;;;;;;30.10;12.90;;;2.50;99.90;;;2.74;73.63;97680.28;4962868;29;20222;-36
2022/01/10 08:07:12;;;;;;;52.83;15.83;;;2.40;99.90;;;2.78;73.86;97693.22;4963890;29;20244;-36
2022/01/10 08:09:41;;;;;;;31.47;14.13;;;2.50;99.90;;;2.82;73.85;97695.50;4963250;29;20047;-36
2022/01/10 08:12:10;;;;;;;31.40;12.67;;;2.50;99.90;;;2.84;74.10;97693.59;4964060;29;20047;-36
2022/01/10 08:14:38;;;;;;;32.90;13.07;;;2.60;99.90;;;2.88;73.68;97702.09;4963378;29;20051;-36
2022/01/10 08:17:06;;;;;;;25.47;12.13;;;2.60;99.90;;;2.92;73.68;97709.63;4963844;29;20054;-36
2022/01/10 08:19:34;;;;;;;27.63;12.30;;;2.70;99.90;;;3.00;73.77;97719.59;4963836;29;20047;-36
2022/01/10 08:22:04;;;;;;;37.70;14.17;;;2.70;99.90;;;2.98;73.97;97716.25;4963992;29;20051;-36
2022/01/10 08:24:33;;;;;;;31.13;12.40;;;2.70;99.90;;;2.96;73.54;97726.03;4962940;29;20063;-36
2022/01/10 08:27:01;;;;;;;34.73;12.50;;;2.70;99.90;;;3.01;73.65;97731.00;4963755;29;20057;-36
2022/01/10 08:29:29;;;;;;;38.43;14.67;;;2.70;99.90;;;3.04;73.35;97731.56;4963967;29;20047;-39
2022/01/10 08:31:58;;;;;;;37.00;15.90;;;2.70;99.90;;;3.09;73.75;97736.53;4964057;28;20054;-39
2022/01/10 08:34:26;;;;;;;31.07;14.93;;;2.80;99.90;;;3.12;73.40;97741.53;4963426;29;20054;-38
2022/01/10 08:36:56;;;;;;;25.63;12.97;;;2.80;99.90;;;3.15;73.60;97746.59;4962525;29;20055;-39
2022/01/10 08:39:24;;;;;;;54.37;14.57;;;2.90;99.90;;;3.17;73.71;97747.31;4964006;29;20053;-39
2022/01/10 08:41:52;;;;;;;30.47;14.97;;;2.90;99.90;;;3.12;73.68;97746.81;4962648;29;20055;-39
2022/01/10 08:44:20;;;;;;;24.67;12.13;;;2.80;99.90;;;3.13;73.52;97754.59;4963604;29;20070;-39
2022/01/10 08:46:48;;;;;;;34.67;13.17;;;2.80;99.90;;;3.12;73.87;97757.31;4963636;29;20051;-39
2022/01/10 08:49:18;;;;;;;36.50;15.37;;;2.80;99.90;;;3.06;73.30;97763.88;4963061;29;20073;-39
2022/01/10 08:51:49;;;;;;;62.10;15.03;;;2.70;99.90;;;2.90;74.40;97758.88;4963591;29;20070;-39
2022/01/10 08:54:17;;;;;;;22.37;11.17;;;2.60;99.90;;;2.88;74.15;97767.84;4963509;29;20061;-39
2022/01/10 08:56:45;;;;;;;30.43;13.63;;;2.50;99.90;;;2.90;73.84;97768.56;4962905;29;20318;-39
2022/01/10 08:59:13;;;;;;;31.63;12.33;;;2.50;99.90;;;2.92;73.94;97777.19;4961883;29;20416;-39
2022/01/10 09:01:42;;;;;;;30.50;11.57;;;2.60;99.90;;;2.95;73.84;97780.44;4962038;29;20062;-39
2022/01/10 09:04:16;;;;;;;66.17;13.30;;;2.60;99.90;;;2.99;73.70;97780.22;4962838;29;20058;-39
2022/01/10 09:06:49;;;;;;;31.20;12.23;;;2.70;99.90;;;2.99;73.95;97785.50;4941552;29;20051;-39
2022/01/10 09:09:18;;;;;;;27.10;11.52;;;2.70;99.90;;;3.02;73.90;97786.09;4962703;29;20349;-39
2022/01/10 09:11:48;;;;;;;29.50;12.93;;;2.70;99.90;;;3.01;73.73;97794.13;4961393;29;20361;-38
2022/01/10 09:14:16;;;;;;;35.40;14.30;;;2.70;99.90;;;3.08;73.43;97790.94;4962459;29;20054;-39
2022/01/10 09:16:45;;;;;;;26.17;11.53;;;2.80;99.90;;;3.14;73.90;97798.38;4962702;29;20047;-39
2022/01/10 09:19:13;;;;;;;25.67;11.00;;;2.90;99.90;;;3.19;73.55;97798.03;4961230;29;20062;-39
2022/01/10 09:21:42;;;;;;;28.90;12.33;;;2.90;99.90;;;3.25;74.16;97807.28;4948059;29;20054;-39
2022/01/10 09:24:10;;;;;;;25.43;11.43;;;3.00;99.90;;;3.32;73.71;97805.88;4967079;29;20059;-39
2022/01/10 09:26:38;;;;;;;24.33;11.97;;;3.10;99.90;;;3.37;73.61;97814.25;4966564;29;20273;-39
2022/01/10 09:29:07;;;;;;;32.57;15.20;;;3.10;99.90;;;3.30;73.29;97818.31;4966576;29;20057;-39
2022/01/10 09:31:35;;;;;;;51.00;12.83;;;3.00;99.90;;;3.27;73.38;97827.25;4966728;29;20051;-39
2022/01/10 09:34:03;;;;;;;32.17;12.27;;;2.90;99.90;;;3.25;73.75;97826.53;4965919;29;20353;-39
2022/01/10 09:36:32;;;;;;;26.10;14.77;;;2.90;99.90;;;3.28;73.51;97833.38;4966293;29;20230;-39
2022/01/10 09:39:02;;;;;;;24.37;12.50;;;3.00;99.90;;;3.34;73.97;97839.03;4965821;29;20059;-39
2022/01/10 09:41:31;;;;;;;26.37;13.13;;;3.00;99.90;;;3.41;73.40;97841.22;4966583;29;20047;-38
2022/01/10 09:44:03;;;;;;;25.37;11.33;;;3.10;99.90;;;3.47;73.94;97846.88;4966617;29;20053;-39
2022/01/10 09:46:32;;;;;;;21.90;12.07;;;3.20;99.90;;;3.54;73.98;97850.72;4965922;29;20051;-39
2022/01/10 09:49:03;;;;;;;26.10;11.37;;;3.30;99.90;;;3.57;73.74;97854.94;4966507;29;20051;-39
2022/01/10 09:51:32;;;;;;;24.80;13.53;;;3.30;99.90;;;3.54;73.77;97858.63;4965941;29;20067;-39
2022/01/10 09:54:02;;;;;;;25.70;11.43;;;3.20;99.90;;;3.55;73.71;97854.22;4966190;29;20058;-39
2022/01/10 09:56:36;;;;;;;26.43;12.43;;;3.20;99.90;;;3.58;73.65;97867.13;4965755;29;20077;-39
2022/01/10 09:59:06;;;;;;;23.30;11.40;;;3.30;99.90;;;3.64;73.55;97871.13;4966621;29;20054;-39
2022/01/10 10:01:34;;;;;;;27.50;13.03;;;3.40;99.90;;;3.67;73.16;97874.38;4964784;29;20376;-39
2022/01/10 10:04:03;;;;;;;22.80;12.03;;;3.40;99.90;;;3.72;73.65;97880.16;4966293;29;20233;-39
2022/01/10 10:06:33;;;;;;;32.57;16.60;;;3.50;99.90;;;3.74;73.47;97878.25;4965064;29;20061;-39
2022/01/10 10:09:06;;;;;;;29.87;14.37;;;3.50;99.90;;;3.77;73.24;97877.16;4948474;29;20059;-38
2022/01/10 10:11:43;;;;;;;23.30;12.27;;;3.50;99.90;;;3.81;72.93;97891.78;4966013;29;20055;-39
2022/01/10 10:14:14;;;;;;;31.47;16.63;;;3.60;99.90;;;3.83;73.03;97892.50;4965270;29;20244;-39
2022/01/10 10:16:48;;;;;;;30.27;13.83;;;3.70;99.90;;;3.83;73.10;97897.78;4965663;29;20240;-39
2022/01/10 10:19:24;;;;;;;19.80;11.10;;;3.60;99.90;;;3.77;73.01;97903.50;4965031;29;20061;-39
2022/01/10 10:21:56;;;;;;;28.77;12.13;;;3.50;99.90;;;3.69;72.89;97906.69;4965774;29;20049;-39
2022/01/10 10:24:26;;;;;;;25.97;15.50;;;3.40;99.90;;;3.72;73.06;97908.25;4965459;29;20051;-39
2022/01/10 10:26:56;;;;;;;26.73;13.90;;;3.40;99.90;;;3.76;73.17;97909.72;4964998;29;20054;-39
2022/01/10 10:29:28;;;;;;;27.05;13.32;;;3.50;99.90;;;3.83;73.03;97908.31;4949854;29;20061;-39
2022/01/10 10:32:02;;;;;;;31.70;14.20;;;3.60;99.90;;;3.87;73.45;97912.41;4965216;28;20051;-39
2022/01/10 10:34:33;;;;;;;21.25;12.68;;;3.70;99.90;;;3.94;73.33;97905.75;4964306;29;20375;-39
2022/01/10 10:37:12;;;;;;;18.23;10.33;;;3.80;99.90;;;4.02;72.85;97909.63;4965496;29;20039;-39
2022/01/10 10:39:43;;;;;;;19.37;11.23;;;3.80;99.90;;;4.06;73.46;97909.25;4951830;29;20066;-39
2022/01/10 10:42:14;;;;;;;25.73;11.57;;;3.90;99.90;;;4.13;73.30;97914.94;4946211;29;20058;-39
2022/01/10 10:44:43;;;;;;;21.23;12.23;;;4.00;99.90;;;4.16;72.57;97916.50;4945711;29;20433;-39